createdAt,value
2022-10-31T00:01:34.151Z,11.76
2022-10-31T00:04:01.666Z,11.75
2022-10-31T00:06:29.230Z,11.73
2022-10-31T00:08:59.256Z,11.72
2022-10-31T00:11:27.297Z,11.66
2022-10-31T00:13:54.716Z,11.61
2022-10-31T00:16:24.817Z,11.61
2022-10-31T00:18:57.617Z,11.58
2022-10-31T00:21:25.443Z,11.56
2022-10-31T00:23:52.859Z,11.29
2022-10-31T00:26:21.048Z,11.54
2022-10-31T00:28:48.682Z,11.49
2022-10-31T00:31:16.133Z,11.43
2022-10-31T00:33:43.843Z,11.41
2022-10-31T00:36:17.922Z,11.40
2022-10-31T00:38:46.779Z,11.37
2022-10-31T00:41:16.878Z,11.41
2022-10-31T00:43:45.028Z,11.31
2022-10-31T00:46:13.865Z,11.34
2022-10-31T00:48:42.449Z,11.31
2022-10-31T00:51:10.611Z,11.25
2022-10-31T00:53:37.983Z,11.24
2022-10-31T00:56:06.319Z,11.22
2022-10-31T00:58:33.800Z,11.21
2022-10-31T01:01:01.259Z,11.19
2022-10-31T01:03:31.525Z,11.18
2022-10-31T01:06:05.042Z,11.16
2022-10-31T01:08:34.589Z,11.15
2022-10-31T01:11:15.344Z,11.13
2022-10-31T01:13:43.078Z,11.14
2022-10-31T01:16:14.109Z,11.13
2022-10-31T01:18:41.990Z,11.12
2022-10-31T01:21:13.638Z,11.10
2022-10-31T01:23:41.495Z,11.08
2022-10-31T01:26:15.091Z,11.07
2022-10-31T01:28:56.138Z,11.03
2022-10-31T01:31:29.024Z,11.01
2022-10-31T01:33:57.255Z,11.00
2022-10-31T01:36:30.324Z,10.97
2022-10-31T01:39:00.251Z,10.96
2022-10-31T01:41:33.658Z,10.93
2022-10-31T01:44:04.578Z,10.91
2022-10-31T01:46:41.998Z,10.91
2022-10-31T01:49:33.559Z,10.91
2022-10-31T01:52:22.179Z,10.85
2022-10-31T01:55:01.802Z,10.80
2022-10-31T01:57:32.783Z,10.82
2022-10-31T02:00:05.732Z,10.82
2022-10-31T02:02:53.510Z,10.82
2022-10-31T02:05:25.557Z,10.82
2022-10-31T02:08:17.699Z,10.76
2022-10-31T02:10:45.824Z,10.73
2022-10-31T02:13:14.009Z,10.71
2022-10-31T02:15:52.320Z,10.72
2022-10-31T02:18:21.357Z,10.72
2022-10-31T02:21:05.274Z,10.70
2022-10-31T02:24:24.760Z,10.67
2022-10-31T02:27:26.968Z,10.66
2022-10-31T02:30:12.878Z,10.65
2022-10-31T02:33:04.043Z,10.64
2022-10-31T02:35:50.916Z,10.66
2022-10-31T02:38:45.334Z,10.63
2022-10-31T02:41:36.006Z,10.66
2022-10-31T02:44:29.990Z,10.44
2022-10-31T02:47:10.465Z,10.51
2022-10-31T02:49:41.234Z,10.51
2022-10-31T02:52:30.404Z,10.45
2022-10-31T02:55:35.546Z,10.45
2022-10-31T02:58:11.835Z,10.46
2022-10-31T03:01:07.557Z,10.45
2022-10-31T03:03:51.863Z,10.45
2022-10-31T03:06:33.412Z,10.42
2022-10-31T03:09:03.808Z,10.34
2022-10-31T03:11:41.181Z,10.31
2022-10-31T03:14:38.838Z,10.35
2022-10-31T03:17:10.555Z,10.33
2022-10-31T03:19:43.295Z,10.30
2022-10-31T03:22:18.746Z,10.29
2022-10-31T03:24:48.239Z,10.25
2022-10-31T03:27:18.144Z,10.20
2022-10-31T03:29:48.320Z,10.17
2022-10-31T03:32:26.575Z,10.15
2022-10-31T03:34:57.435Z,10.19
2022-10-31T03:37:28.323Z,10.16
2022-10-31T03:39:59.468Z,10.16
2022-10-31T03:42:31.133Z,10.13
2022-10-31T03:45:01.478Z,10.11
2022-10-31T03:47:29.352Z,10.06
2022-10-31T03:49:57.579Z,10.05
2022-10-31T03:52:57.011Z,9.94
2022-10-31T03:55:42.967Z,9.95
2022-10-31T04:00:51.637Z,9.93
2022-10-31T04:03:28.199Z,9.97
2022-10-31T04:06:03.034Z,9.97
2022-10-31T04:08:34.051Z,9.94
2022-10-31T04:11:04.306Z,9.91
2022-10-31T04:13:36.752Z,9.87
2022-10-31T04:16:15.986Z,9.84
2022-10-31T04:18:45.112Z,9.83
2022-10-31T04:21:12.405Z,9.80
2022-10-31T04:23:39.829Z,9.81
2022-10-31T04:26:22.363Z,9.76
2022-10-31T04:28:49.710Z,9.75
2022-10-31T04:31:17.420Z,9.73
2022-10-31T04:33:46.757Z,9.70
2022-10-31T04:36:14.246Z,9.74
2022-10-31T04:38:42.934Z,9.74
2022-10-31T04:41:22.848Z,9.72
2022-10-31T04:43:59.126Z,9.66
2022-10-31T04:46:28.405Z,9.63
2022-10-31T04:48:58.073Z,9.65
2022-10-31T04:51:25.593Z,9.60
2022-10-31T04:53:53.422Z,9.57
2022-10-31T04:56:39.372Z,9.53
2022-10-31T04:59:13.062Z,9.53
2022-10-31T05:01:53.289Z,9.50
2022-10-31T05:04:34.366Z,9.54
2022-10-31T05:07:01.892Z,9.50
2022-10-31T05:09:29.248Z,9.52
2022-10-31T05:11:56.635Z,9.48
2022-10-31T05:14:47.630Z,9.47
2022-10-31T05:17:34.435Z,9.44
2022-10-31T05:20:27.954Z,9.39
2022-10-31T05:23:13.010Z,9.32
2022-10-31T05:25:42.825Z,9.34
2022-10-31T05:28:10.257Z,9.34
2022-10-31T05:30:38.344Z,9.34
2022-10-31T05:33:08.415Z,9.29
2022-10-31T05:35:56.075Z,9.29
2022-10-31T05:38:39.653Z,9.25
2022-10-31T05:41:17.398Z,9.21
2022-10-31T05:43:47.761Z,9.22
2022-10-31T05:46:17.145Z,9.23
2022-10-31T05:49:07.367Z,9.17
2022-10-31T05:52:00.592Z,9.18
2022-10-31T05:54:37.280Z,9.16
2022-10-31T05:57:04.725Z,9.17
2022-10-31T05:59:32.110Z,9.19
2022-10-31T06:01:59.632Z,9.17
2022-10-31T06:04:47.072Z,9.15
2022-10-31T06:07:14.554Z,9.17
2022-10-31T06:09:42.014Z,9.18
2022-10-31T06:12:09.437Z,9.18
2022-10-31T06:14:55.470Z,9.22
2022-10-31T06:17:22.803Z,9.20
2022-10-31T06:22:26.238Z,9.80
2022-10-31T06:24:53.722Z,10.04
2022-10-31T06:27:29.527Z,10.07
2022-10-31T06:29:58.638Z,10.06
2022-10-31T06:32:33.660Z,10.05
2022-10-31T06:35:01.065Z,10.06
2022-10-31T06:37:28.328Z,9.95
2022-10-31T06:40:04.700Z,9.89
2022-10-31T06:42:41.280Z,9.75
2022-10-31T06:45:10.502Z,9.67
2022-10-31T06:51:04.054Z,9.90
2022-10-31T06:53:32.709Z,9.95
2022-10-31T06:56:01.160Z,10.02
2022-10-31T06:58:28.533Z,10.13
2022-10-31T07:01:01.632Z,10.17
2022-10-31T07:03:29.292Z,10.12
2022-10-31T07:05:58.140Z,10.19
2022-10-31T07:08:27.466Z,10.27
2022-10-31T07:10:57.601Z,10.34
2022-10-31T07:13:28.771Z,10.31
2022-10-31T07:16:07.860Z,10.32
2022-10-31T07:18:37.192Z,10.26
2022-10-31T07:21:05.301Z,10.24
2022-10-31T07:23:33.185Z,10.18
2022-10-31T07:26:20.490Z,10.18
2022-10-31T07:28:49.207Z,10.20
2022-10-31T07:31:19.712Z,10.24
2022-10-31T07:33:47.151Z,10.28
2022-10-31T07:36:29.719Z,10.32
2022-10-31T07:39:03.256Z,10.32
2022-10-31T07:41:32.374Z,10.37
2022-10-31T07:43:59.923Z,10.40
2022-10-31T07:46:47.184Z,10.48
2022-10-31T07:49:25.873Z,10.54
2022-10-31T07:52:11.897Z,10.63
2022-10-31T07:54:57.830Z,10.70
2022-10-31T07:57:25.911Z,10.76
2022-10-31T07:59:54.249Z,10.80
2022-10-31T08:02:21.618Z,10.85
2022-10-31T08:04:49.072Z,10.95
2022-10-31T08:07:45.557Z,11.00
2022-10-31T08:10:19.415Z,11.05
2022-10-31T08:12:47.288Z,11.12
2022-10-31T08:15:15.244Z,11.20
2022-10-31T08:17:42.628Z,11.28
2022-10-31T08:20:11.982Z,11.43
2022-10-31T08:23:04.748Z,11.50
2022-10-31T08:25:38.653Z,11.59
2022-10-31T08:28:07.809Z,11.68
2022-10-31T08:30:38.320Z,11.75
2022-10-31T08:33:26.195Z,11.88
2022-10-31T08:36:16.541Z,11.96
2022-10-31T08:39:02.152Z,12.05
2022-10-31T08:41:31.412Z,12.16
2022-10-31T08:44:00.340Z,12.29
2022-10-31T08:46:27.672Z,12.40
2022-10-31T08:48:55.017Z,12.52
2022-10-31T08:51:23.792Z,12.62
2022-10-31T08:53:54.441Z,12.67
2022-10-31T08:56:56.475Z,12.82
2022-10-31T08:59:42.590Z,12.87
2022-10-31T09:02:33.045Z,12.94
2022-10-31T09:05:01.616Z,13.05
2022-10-31T09:07:30.403Z,13.18
2022-10-31T09:09:59.283Z,13.34
2022-10-31T09:12:27.271Z,13.40
2022-10-31T09:15:10.306Z,13.50
2022-10-31T09:17:56.248Z,13.58
2022-10-31T09:20:38.592Z,13.73
2022-10-31T09:23:13.181Z,13.83
2022-10-31T09:25:46.165Z,13.99
2022-10-31T09:28:34.964Z,14.14
2022-10-31T09:31:07.732Z,14.28
2022-10-31T09:33:55.811Z,14.38
2022-10-31T09:36:39.431Z,14.52
2022-10-31T09:39:20.381Z,14.65
2022-10-31T09:42:00.338Z,14.81
2022-10-31T09:45:34.118Z,15.05
2022-10-31T09:48:26.127Z,15.35
2022-10-31T09:51:26.897Z,15.84
2022-10-31T09:54:18.513Z,16.76
2022-10-31T09:56:46.436Z,18.08
2022-10-31T09:59:31.326Z,19.49
2022-10-31T10:02:03.778Z,20.83
2022-10-31T10:04:44.578Z,22.01
2022-10-31T10:07:35.432Z,22.55
2022-10-31T10:10:52.066Z,23.66
2022-10-31T10:14:01.177Z,24.40
2022-10-31T10:16:48.311Z,25.11
2022-10-31T10:19:31.560Z,25.85
2022-10-31T10:21:58.906Z,26.12
2022-10-31T10:24:46.445Z,25.86
2022-10-31T10:27:41.450Z,25.93
2022-10-31T10:30:21.825Z,25.81
2022-10-31T10:33:00.396Z,25.83
2022-10-31T10:35:33.843Z,26.46
2022-10-31T10:38:11.258Z,27.20
2022-10-31T10:40:39.183Z,27.93
2022-10-31T10:43:24.931Z,28.43
2022-10-31T10:46:29.716Z,28.94
2022-10-31T10:49:20.138Z,29.52
2022-10-31T10:52:43.180Z,29.86
2022-10-31T10:55:25.879Z,29.91
2022-10-31T10:58:07.074Z,30.15
2022-10-31T11:00:42.129Z,30.75
2022-10-31T11:03:11.356Z,31.20
2022-10-31T11:06:02.070Z,31.65
2022-10-31T11:08:32.322Z,31.99
2022-10-31T11:11:15.776Z,31.92
2022-10-31T11:13:44.634Z,31.84
2022-10-31T11:16:16.064Z,31.30
2022-10-31T11:18:46.865Z,31.36
2022-10-31T11:21:30.543Z,31.78
2022-10-31T11:24:15.638Z,32.10
2022-10-31T11:26:44.816Z,32.13
2022-10-31T11:29:17.979Z,31.97
2022-10-31T11:31:47.906Z,32.23
2022-10-31T11:34:20.854Z,32.08
2022-10-31T11:36:49.163Z,30.96
2022-10-31T11:39:23.788Z,29.78
2022-10-31T11:41:53.984Z,29.55
2022-10-31T11:44:26.618Z,29.60
2022-10-31T11:46:59.707Z,29.83
2022-10-31T11:49:36.592Z,30.33
2022-10-31T11:52:18.555Z,30.49
2022-10-31T11:54:55.327Z,30.50
2022-10-31T11:57:30.755Z,30.59
2022-10-31T12:00:01.479Z,30.38
2022-10-31T12:02:49.302Z,29.88
2022-10-31T12:05:21.919Z,29.58
2022-10-31T12:07:50.339Z,29.69
2022-10-31T12:10:22.047Z,30.03
2022-10-31T12:13:01.098Z,30.22
2022-10-31T12:15:32.797Z,30.09
2022-10-31T12:18:07.343Z,29.29
2022-10-31T12:20:58.132Z,28.32
2022-10-31T12:24:13.289Z,27.18
2022-10-31T12:27:07.549Z,25.43
2022-10-31T12:29:37.518Z,24.80
2022-10-31T12:32:33.811Z,24.44
2022-10-31T12:35:26.603Z,24.00
2022-10-31T12:38:31.285Z,23.47
2022-10-31T12:41:25.615Z,23.08
2022-10-31T12:44:01.550Z,22.90
2022-10-31T12:47:05.655Z,22.75
2022-10-31T12:49:51.099Z,22.47
2022-10-31T12:53:06.443Z,22.26
2022-10-31T12:55:57.429Z,22.21
2022-10-31T12:58:33.781Z,21.87
2022-10-31T13:01:25.448Z,21.68
2022-10-31T13:04:04.549Z,21.56
2022-10-31T13:06:44.721Z,21.45
2022-10-31T13:09:18.769Z,21.40
2022-10-31T13:12:02.039Z,21.41
2022-10-31T13:14:35.875Z,21.34
2022-10-31T13:17:03.429Z,21.35
2022-10-31T13:19:41.005Z,21.32
2022-10-31T13:22:31.619Z,21.27
2022-10-31T13:25:04.114Z,21.24
2022-10-31T13:27:50.039Z,21.20
2022-10-31T13:30:21.880Z,21.17
2022-10-31T13:33:04.769Z,21.09
2022-10-31T13:35:50.718Z,21.10
2022-10-31T13:38:53.862Z,21.10
2022-10-31T13:42:00.624Z,21.11
2022-10-31T13:44:37.385Z,21.06
2022-10-31T13:47:21.746Z,21.09
2022-10-31T13:49:49.147Z,21.15
2022-10-31T13:52:27.819Z,21.15
2022-10-31T13:54:58.406Z,21.13
2022-10-31T13:57:28.993Z,21.09
2022-10-31T14:00:05.788Z,20.99
2022-10-31T14:02:59.824Z,20.95
2022-10-31T14:05:37.131Z,20.82
2022-10-31T14:08:07.123Z,20.84
2022-10-31T14:10:38.745Z,20.86
2022-10-31T14:13:15.197Z,20.87
2022-10-31T14:15:53.495Z,20.82
2022-10-31T14:18:35.491Z,20.75
2022-10-31T14:21:14.459Z,20.67
2022-10-31T14:23:43.650Z,20.69
2022-10-31T14:26:32.099Z,20.61
2022-10-31T14:29:23.957Z,20.49
2022-10-31T14:32:11.661Z,20.40
2022-10-31T14:34:55.804Z,20.26
2022-10-31T14:37:41.744Z,20.13
2022-10-31T14:40:35.378Z,19.97
2022-10-31T14:43:17.328Z,19.84
2022-10-31T14:45:53.285Z,19.75
2022-10-31T14:48:39.343Z,19.63
2022-10-31T14:51:23.035Z,19.49
2022-10-31T14:53:52.018Z,19.39
2022-10-31T14:56:29.893Z,19.26
2022-10-31T14:59:02.190Z,19.15
2022-10-31T15:01:34.246Z,19.07
2022-10-31T15:04:24.762Z,18.96
2022-10-31T15:07:11.840Z,18.83
2022-10-31T15:09:41.820Z,18.76
2022-10-31T15:12:39.426Z,17.99
2022-10-31T15:15:13.842Z,18.55
2022-10-31T15:17:50.031Z,18.45
2022-10-31T15:20:29.258Z,18.31
2022-10-31T15:23:00.714Z,18.19
2022-10-31T15:25:33.223Z,18.08
2022-10-31T15:28:00.957Z,17.96
2022-10-31T15:30:30.366Z,17.86
2022-10-31T15:32:59.034Z,17.73
2022-10-31T15:35:29.829Z,17.61
2022-10-31T15:37:59.220Z,17.46
2022-10-31T15:40:28.934Z,17.30
2022-10-31T15:43:05.555Z,17.18
2022-10-31T15:45:33.400Z,17.09
2022-10-31T15:48:04.155Z,16.96
2022-10-31T15:50:54.317Z,16.87
2022-10-31T15:53:36.564Z,16.73
2022-10-31T15:56:07.970Z,16.66
2022-10-31T15:58:43.750Z,16.58
2022-10-31T16:01:37.717Z,16.47
2022-10-31T16:04:13.362Z,16.37
2022-10-31T16:06:40.860Z,16.29
2022-10-31T16:09:24.660Z,16.16
2022-10-31T16:11:52.627Z,16.07
2022-10-31T16:14:26.791Z,16.00
2022-10-31T16:16:57.641Z,15.92
2022-10-31T16:19:37.230Z,15.83
2022-10-31T16:22:09.353Z,15.81
2022-10-31T16:24:59.757Z,15.77
2022-10-31T16:27:31.325Z,15.68
2022-10-31T16:30:05.363Z,15.61
2022-10-31T16:32:56.632Z,15.56
2022-10-31T16:35:28.827Z,15.52
2022-10-31T16:37:56.289Z,15.48
2022-10-31T16:40:23.559Z,15.43
2022-10-31T16:42:51.124Z,15.35
2022-10-31T16:45:24.006Z,15.31
2022-10-31T16:47:52.123Z,15.25
2022-10-31T16:50:24.113Z,15.22
2022-10-31T16:55:55.488Z,15.06
2022-10-31T16:58:33.588Z,15.01
2022-10-31T17:01:05.780Z,14.96
2022-10-31T17:03:33.461Z,14.95
2022-10-31T17:06:00.862Z,14.94
2022-10-31T17:08:28.178Z,14.88
2022-10-31T17:10:57.314Z,14.81
2022-10-31T17:13:28.512Z,14.77
2022-10-31T17:15:58.519Z,14.73
2022-10-31T17:18:27.873Z,14.69
2022-10-31T17:21:01.427Z,14.64
2022-10-31T17:23:29.270Z,14.67
2022-10-31T17:25:57.219Z,14.63
2022-10-31T17:28:26.599Z,14.64
2022-10-31T17:30:56.098Z,14.62
2022-10-31T17:33:23.490Z,14.59
2022-10-31T17:35:51.670Z,14.55
2022-10-31T17:38:19.307Z,14.48
2022-10-31T17:43:19.031Z,14.34
2022-10-31T17:45:46.408Z,14.28
2022-10-31T17:48:13.828Z,14.27
2022-10-31T17:50:41.427Z,14.23
2022-10-31T17:53:08.877Z,14.25
2022-10-31T17:55:37.407Z,14.25
2022-10-31T17:58:05.511Z,14.24
2022-10-31T18:00:33.898Z,14.20
2022-10-31T18:03:03.964Z,14.18
2022-10-31T18:05:32.150Z,14.21
2022-10-31T18:08:03.743Z,14.20
2022-10-31T18:10:32.023Z,14.21
2022-10-31T18:12:59.743Z,14.20
2022-10-31T18:15:27.402Z,14.23
2022-10-31T18:17:54.738Z,14.22
2022-10-31T18:20:22.133Z,14.24
2022-10-31T18:22:49.521Z,14.28
2022-10-31T18:25:17.018Z,14.28
2022-10-31T18:27:44.323Z,14.25
2022-10-31T18:30:12.119Z,14.27
2022-10-31T18:32:39.416Z,14.28
2022-10-31T18:35:07.058Z,14.25
2022-10-31T18:37:34.474Z,14.22
2022-10-31T18:40:01.799Z,14.12
2022-10-31T18:42:29.184Z,14.12
2022-10-31T18:44:56.573Z,14.09
2022-10-31T18:47:23.949Z,14.05
2022-10-31T18:49:51.342Z,14.03
2022-10-31T18:52:18.683Z,13.98
2022-10-31T18:54:46.184Z,13.97
2022-10-31T18:57:13.515Z,13.91
2022-10-31T18:59:41.008Z,13.89
2022-10-31T19:02:09.475Z,13.85
2022-10-31T19:04:36.936Z,13.83
2022-10-31T19:07:04.287Z,13.79
2022-10-31T19:09:34.388Z,13.76
2022-10-31T19:12:01.796Z,13.74
2022-10-31T19:14:29.167Z,13.68
2022-10-31T19:17:01.230Z,13.60
2022-10-31T19:19:29.890Z,13.55
2022-10-31T19:21:57.865Z,13.50
2022-10-31T19:24:25.285Z,13.47
2022-10-31T19:26:52.584Z,13.44
2022-10-31T19:29:19.945Z,13.42
2022-10-31T19:31:48.246Z,13.40
2022-10-31T19:34:15.594Z,13.37
2022-10-31T19:36:43.353Z,13.40
2022-10-31T19:39:11.116Z,13.41
2022-10-31T19:41:38.562Z,13.38
2022-10-31T19:44:06.541Z,13.34
2022-10-31T19:46:52.764Z,13.29
2022-10-31T19:49:21.128Z,13.26
2022-10-31T19:51:48.566Z,13.25
2022-10-31T19:54:15.982Z,13.23
2022-10-31T19:56:43.401Z,13.15
2022-10-31T19:59:10.791Z,13.13
2022-10-31T20:01:38.266Z,13.09
2022-10-31T20:04:05.873Z,13.06
2022-10-31T20:06:36.580Z,13.07
2022-10-31T20:09:13.466Z,13.06
2022-10-31T20:11:42.470Z,13.07
2022-10-31T20:14:16.735Z,13.06
2022-10-31T20:16:46.583Z,12.98
2022-10-31T20:19:14.371Z,12.94
2022-10-31T20:21:42.461Z,12.86
2022-10-31T20:24:10.829Z,12.85
2022-10-31T20:26:40.790Z,12.86
2022-10-31T20:29:12.231Z,12.84
2022-10-31T20:31:39.974Z,12.82
2022-10-31T20:34:07.358Z,12.75
2022-10-31T20:36:36.688Z,12.75
2022-10-31T20:39:05.046Z,12.79
2022-10-31T20:41:32.347Z,12.83
2022-10-31T20:43:59.815Z,12.81
2022-10-31T20:46:27.715Z,12.85
2022-10-31T20:48:55.430Z,12.90
2022-10-31T20:51:27.459Z,13.00
2022-10-31T20:53:56.950Z,12.96
2022-10-31T20:56:25.965Z,12.93
2022-10-31T20:58:56.065Z,12.91
2022-10-31T21:01:29.062Z,12.90
2022-10-31T21:03:58.252Z,12.86
2022-10-31T21:06:26.815Z,12.87
2022-10-31T21:08:54.652Z,12.92
2022-10-31T21:11:25.081Z,12.93
2022-10-31T21:13:53.199Z,12.92
2022-10-31T21:16:23.636Z,12.85
2022-10-31T21:18:52.185Z,12.85
2022-10-31T21:21:32.213Z,12.83
2022-10-31T21:24:15.053Z,12.76
2022-10-31T21:26:45.880Z,12.81
2022-10-31T21:29:14.830Z,12.76
2022-10-31T21:31:42.953Z,12.76
2022-10-31T21:34:11.133Z,12.75
2022-10-31T21:36:38.917Z,12.72
2022-10-31T21:39:08.152Z,12.71
2022-10-31T21:41:35.495Z,12.67
2022-10-31T21:44:03.012Z,12.61
2022-10-31T21:46:32.028Z,12.60
2022-10-31T21:49:01.826Z,12.63
2022-10-31T21:51:32.781Z,12.56
2022-10-31T21:54:19.144Z,12.54
2022-10-31T21:56:46.883Z,12.54
2022-10-31T21:59:14.264Z,12.51
2022-10-31T22:01:42.031Z,12.47
2022-10-31T22:04:09.859Z,12.46
2022-10-31T22:06:37.659Z,12.43
2022-10-31T22:09:07.393Z,12.44
2022-10-31T22:11:35.290Z,12.41
2022-10-31T22:14:03.404Z,12.38
2022-10-31T22:16:33.685Z,12.37
2022-10-31T22:19:05.317Z,12.34
2022-10-31T22:21:41.055Z,12.33
2022-10-31T22:24:09.337Z,12.30
2022-10-31T22:26:38.033Z,12.25
2022-10-31T22:29:10.511Z,12.22
2022-10-31T22:31:43.345Z,12.19
2022-10-31T22:34:11.723Z,11.94
2022-10-31T22:36:39.701Z,12.15
2022-10-31T22:39:07.959Z,12.16
2022-10-31T22:41:36.654Z,12.16
2022-10-31T22:44:05.573Z,12.16
2022-10-31T22:46:36.256Z,12.15
2022-10-31T22:49:11.154Z,12.11
2022-10-31T22:51:39.766Z,12.07
2022-10-31T22:54:18.013Z,12.06
2022-10-31T22:56:46.523Z,12.01
2022-10-31T22:59:15.914Z,12.03
2022-10-31T23:01:46.970Z,12.07
2022-10-31T23:04:15.861Z,12.01
2022-10-31T23:06:44.420Z,12.02
2022-10-31T23:09:15.200Z,12.01
2022-10-31T23:11:43.273Z,11.95
2022-10-31T23:14:16.457Z,11.87
2022-10-31T23:16:48.503Z,11.87
2022-10-31T23:19:27.710Z,11.92
2022-10-31T23:22:01.037Z,11.97
2022-10-31T23:24:34.316Z,11.93
2022-10-31T23:27:09.562Z,11.97
2022-10-31T23:29:38.284Z,12.05
2022-10-31T23:32:07.451Z,12.07
2022-10-31T23:34:35.296Z,12.13
2022-10-31T23:37:02.695Z,12.22
2022-10-31T23:39:30.427Z,12.25
2022-10-31T23:41:57.969Z,12.24
2022-10-31T23:44:25.378Z,12.24
2022-10-31T23:46:52.904Z,12.30
2022-10-31T23:49:20.409Z,12.32
2022-10-31T23:51:47.879Z,12.31
2022-10-31T23:54:15.513Z,12.34
2022-10-31T23:56:43.034Z,12.37
2022-10-31T23:59:10.486Z,12.42
